sensor_id;sensor_type;location;lat;lon;timestamp;P1;durP1;ratioP1;P2;durP2;ratioP2
46633;SDS011;32362;49.986;8.026;2023-02-08T00:26:06;8.38;;;3.58;;
46633;SDS011;32362;49.986;8.026;2023-02-08T00:52:58;6.15;;;3.60;;
46633;SDS011;32362;49.986;8.026;2023-02-08T01:19:39;5.05;;;3.35;;
46633;SDS011;32362;49.986;8.026;2023-02-08T01:46:20;6.83;;;3.10;;
46633;SDS011;32362;49.986;8.026;2023-02-08T02:13:12;5.15;;;3.28;;
46633;SDS011;32362;49.986;8.026;2023-02-08T02:40:02;6.28;;;3.00;;
46633;SDS011;32362;49.986;8.026;2023-02-08T03:34:11;6.38;;;3.00;;
46633;SDS011;32362;49.986;8.026;2023-02-08T04:01:01;7.00;;;3.10;;
46633;SDS011;32362;49.986;8.026;2023-02-08T04:27:47;5.28;;;2.85;;
46633;SDS011;32362;49.986;8.026;2023-02-08T04:54:28;10.13;;;5.17;;
46633;SDS011;32362;49.986;8.026;2023-02-08T05:21:09;6.38;;;4.50;;
46633;SDS011;32362;49.986;8.026;2023-02-08T05:48:05;7.55;;;4.60;;
46633;SDS011;32362;49.986;8.026;2023-02-08T06:37:41;15.38;;;6.75;;
46633;SDS011;32362;49.986;8.026;2023-02-08T07:04:21;17.58;;;7.30;;
46633;SDS011;32362;49.986;8.026;2023-02-08T07:31:05;16.88;;;7.70;;
46633;SDS011;32362;49.986;8.026;2023-02-08T07:57:48;16.35;;;6.85;;
46633;SDS011;32362;49.986;8.026;2023-02-08T08:24:29;14.85;;;6.80;;
46633;SDS011;32362;49.986;8.026;2023-02-08T08:51:24;12.68;;;5.93;;
46633;SDS011;32362;49.986;8.026;2023-02-08T09:18:05;13.52;;;7.15;;
46633;SDS011;32362;49.986;8.026;2023-02-08T10:38:32;14.57;;;6.47;;
46633;SDS011;32362;49.986;8.026;2023-02-08T11:05:17;12.23;;;5.85;;
46633;SDS011;32362;49.986;8.026;2023-02-08T11:32:18;13.30;;;6.05;;
46633;SDS011;32362;49.986;8.026;2023-02-08T11:59:00;15.52;;;7.95;;
46633;SDS011;32362;49.986;8.026;2023-02-08T13:19:57;11.00;;;6.35;;
46633;SDS011;32362;49.986;8.026;2023-02-08T13:46:46;14.35;;;7.75;;
46633;SDS011;32362;49.986;8.026;2023-02-08T15:33:58;12.52;;;6.63;;
46633;SDS011;32362;49.986;8.026;2023-02-08T16:00:49;12.60;;;6.05;;
46633;SDS011;32362;49.986;8.026;2023-02-08T16:27:30;16.33;;;5.63;;
46633;SDS011;32362;49.986;8.026;2023-02-08T16:54:13;11.27;;;4.90;;
46633;SDS011;32362;49.986;8.026;2023-02-08T17:21:07;18.75;;;9.27;;
46633;SDS011;32362;49.986;8.026;2023-02-08T17:47:48;20.92;;;6.90;;
46633;SDS011;32362;49.986;8.026;2023-02-08T18:14:29;26.08;;;10.35;;
46633;SDS011;32362;49.986;8.026;2023-02-08T18:41:10;25.35;;;9.98;;
46633;SDS011;32362;49.986;8.026;2023-02-08T19:07:52;23.73;;;9.98;;
46633;SDS011;32362;49.986;8.026;2023-02-08T19:34:33;25.75;;;11.20;;
46633;SDS011;32362;49.986;8.026;2023-02-08T20:01:15;23.05;;;9.07;;
46633;SDS011;32362;49.986;8.026;2023-02-08T20:27:58;15.55;;;7.40;;
46633;SDS011;32362;49.986;8.026;2023-02-08T20:54:53;19.85;;;8.63;;
46633;SDS011;32362;49.986;8.026;2023-02-08T21:21:38;17.00;;;6.50;;
46633;SDS011;32362;49.986;8.026;2023-02-08T21:48:19;20.23;;;8.00;;
46633;SDS011;32362;49.986;8.026;2023-02-08T22:14:59;14.40;;;7.03;;
46633;SDS011;32362;49.986;8.026;2023-02-08T22:41:40;19.05;;;7.40;;
46633;SDS011;32362;49.986;8.026;2023-02-08T23:08:28;16.47;;;7.70;;
46633;SDS011;32362;49.986;8.026;2023-02-08T23:35:09;20.50;;;9.20;;
